Disclaimer

Please do not use the information listed here in-flight or in-navigation, as they are not provided to us by the airports but are provided by volunteers, so they might be outdated.

Search


Regions


Airport information page

Radio informations:
STOCKHOLM TCA - 134.2 MHz

Airport informations:
Latitude: 59° 53' 50.38" N
Longitude: 017° 35' 18.89" E
Elevation: 68 feet - 21 meters
Operating hours: Remarks
Operating agency: Military
Timezone: UTC+1(+2DT) - Last Sunday in March to last Sunday in October
Fuel: Jet A1, without icing nhibitor.

100/130 MIL Spec, low lead, aviation gasoline (BLUE)

Runway information:
03/21 - 6250 x 131 feet< - >1905 x 40 meters
08/26 - 6594 x 131 feet< - >2010 x 40 meters

Recent METARs:
ESCM 160620Z AUTO 21008KT 9999 BKN066/// 07/06 Q1032
ESCM 160650Z 22008KT CAVOK 07/06 Q1032
ESCM 160720Z 21008KT CAVOK 07/06 Q1033

Airport on the map: